Time;durP1;ratioP1;P1;durP2;ratioP2;P2;SDS_P1;SDS_P2;PMS_P1;PMS_P2;Temp;Humidity;BMP_temperature;BMP_pressure;BME280_temperature;BME280_humidity;BME280_pressure;Samples;Min_cycle;Max_cycle;Signal;HPM_P1;HPM_P2
2021/03/15 00:00:35;;;;;;;23.90;10.18;;;5.20;99.90;;;;;;5093767;28;20024;-67
2021/03/15 00:03:00;;;;;;;22.20;11.30;;;5.20;99.90;;;;;;5093173;28;20031;-67
2021/03/15 00:05:26;;;;;;;25.00;11.65;;;5.30;99.90;;;;;;5093456;28;20020;-67
2021/03/15 00:07:52;;;;;;;22.73;11.43;;;5.30;99.90;;;;;;5093099;28;20028;-67
2021/03/15 00:10:18;;;;;;;30.13;12.98;;;5.30;99.90;;;;;;5093043;28;20048;-67
2021/03/15 00:12:44;;;;;;;23.33;13.10;;;5.20;99.90;;;;;;5093624;28;20020;-67
2021/03/15 00:15:12;;;;;;;27.33;13.13;;;5.10;99.90;;;;;;5092158;28;20402;-67
2021/03/15 00:17:38;;;;;;;31.55;13.88;;;5.20;99.90;;;;;;5094426;28;20024;-67
2021/03/15 00:20:07;;;;;;;25.63;14.38;;;5.20;99.90;;;;;;5097246;28;20035;-67
2021/03/15 00:22:33;;;;;;;26.90;13.75;;;5.20;99.90;;;;;;5097223;28;20044;-67
2021/03/15 00:24:59;;;;;;;28.42;14.40;;;5.20;99.90;;;;;;5096603;28;20492;-67
2021/03/15 00:27:24;;;;;;;25.48;13.32;;;5.20;99.90;;;;;;5096883;28;20030;-67
2021/03/15 00:29:51;;;;;;;29.83;13.55;;;5.20;99.90;;;;;;5096986;28;20028;-67
2021/03/15 00:32:18;;;;;;;24.85;12.80;;;5.20;99.90;;;;;;5095230;28;20032;-67
2021/03/15 00:34:43;;;;;;;26.00;12.40;;;5.30;99.90;;;;;;5096991;28;20061;-67
2021/03/15 00:37:09;;;;;;;34.17;13.68;;;5.30;99.90;;;;;;5096911;28;20457;-67
2021/03/15 00:39:34;;;;;;;26.98;12.57;;;5.30;99.90;;;;;;5097444;28;20024;-67
2021/03/15 00:42:00;;;;;;;29.60;11.48;;;5.20;99.90;;;;;;5096550;28;20047;-67
2021/03/15 00:44:26;;;;;;;23.30;12.07;;;5.20;99.90;;;;;;5096497;28;20461;-67
2021/03/15 00:46:51;;;;;;;22.65;11.13;;;5.20;99.90;;;;;;5096783;28;20106;-67
2021/03/15 00:49:17;;;;;;;27.25;11.88;;;5.20;99.90;;;;;;5096726;28;20024;-67
2021/03/15 00:51:43;;;;;;;26.52;11.45;;;5.30;99.90;;;;;;5096284;28;20433;-67
2021/03/15 00:54:09;;;;;;;24.92;12.05;;;5.20;99.90;;;;;;5096338;28;20051;-67
2021/03/15 00:56:34;;;;;;;23.40;11.98;;;5.20;99.90;;;;;;5094776;28;20119;-67
2021/03/15 00:59:00;;;;;;;25.15;12.50;;;5.20;99.90;;;;;;5096533;28;20031;-67
2021/03/15 01:01:25;;;;;;;32.03;12.13;;;5.20;99.90;;;;;;5096513;28;20031;-67
2021/03/15 01:03:51;;;;;;;25.00;12.13;;;5.20;99.90;;;;;;5096439;28;20114;-67
2021/03/15 01:06:16;;;;;;;30.40;12.23;;;5.20;99.90;;;;;;5096134;28;20024;-67
2021/03/15 01:08:42;;;;;;;24.70;11.40;;;5.20;99.90;;;;;;5096065;28;20465;-67
2021/03/15 01:11:09;;;;;;;22.55;11.13;;;5.20;99.90;;;;;;5095681;28;20044;-67
2021/03/15 01:13:36;;;;;;;26.50;12.25;;;5.20;99.90;;;;;;5096253;28;20069;-67
2021/03/15 01:16:02;;;;;;;22.05;11.07;;;5.20;99.90;;;;;;5095910;28;20028;-67
2021/03/15 01:18:28;;;;;;;26.27;11.52;;;5.20;99.90;;;;;;5096143;28;20445;-67
2021/03/15 01:20:53;;;;;;;28.40;11.93;;;5.20;99.90;;;;;;5094297;28;20038;-67
2021/03/15 01:23:19;;;;;;;23.77;11.18;;;5.30;99.90;;;;;;5096040;28;20038;-67
2021/03/15 01:25:46;;;;;;;21.85;10.70;;;5.30;99.90;;;;;;5095998;28;20092;-67
2021/03/15 01:28:13;;;;;;;30.90;11.70;;;5.30;99.90;;;;;;5095372;28;20377;-67
2021/03/15 01:30:41;;;;;;;29.60;11.40;;;5.40;99.90;;;;;;5094403;28;20035;-67
2021/03/15 01:33:07;;;;;;;26.17;11.45;;;5.40;99.90;;;;;;5095284;28;20032;-67
2021/03/15 01:35:33;;;;;;;25.65;11.40;;;5.40;99.90;;;;;;5094365;28;20023;-67
2021/03/15 01:38:00;;;;;;;24.33;12.27;;;5.40;99.90;;;;;;5095198;28;20384;-67
2021/03/15 01:40:26;;;;;;;25.40;11.75;;;5.40;99.90;;;;;;5093856;28;20070;-67
2021/03/15 01:42:52;;;;;;;27.20;12.18;;;5.40;99.90;;;;;;5095617;28;20032;-67
2021/03/15 01:45:17;;;;;;;28.63;14.43;;;5.40;99.90;;;;;;5093773;28;20534;-67
2021/03/15 01:47:44;;;;;;;26.58;14.00;;;5.40;99.90;;;;;;5095506;28;20031;-67
2021/03/15 01:50:12;;;;;;;28.45;14.07;;;5.40;99.90;;;;;;5095105;28;20024;-67
2021/03/15 01:52:39;;;;;;;25.73;12.63;;;5.40;99.90;;;;;;5095447;28;20077;-67
2021/03/15 01:55:07;;;;;;;25.75;11.63;;;5.30;99.90;;;;;;5095408;28;20077;-67
2021/03/15 01:57:34;;;;;;;20.67;12.27;;;5.30;99.90;;;;;;5095333;28;20404;-67
2021/03/15 01:59:59;;;;;;;23.00;13.20;;;5.20;99.90;;;;;;5094766;28;20035;-67
2021/03/15 02:02:26;;;;;;;19.42;13.15;;;5.20;99.90;;;;;;5095255;28;20032;-67
2021/03/15 02:04:52;;;;;;;21.13;12.77;;;5.20;99.90;;;;;;5094016;28;20457;-67
2021/03/15 02:07:17;;;;;;;22.55;12.00;;;5.10;99.90;;;;;;5095215;28;20035;-67
2021/03/15 02:09:43;;;;;;;19.35;11.13;;;5.10;99.90;;;;;;5094510;28;20469;-67
2021/03/15 02:12:48;;;;;;;15.73;10.80;;;5.10;99.90;;;;;;5094777;28;20024;-67
2021/03/15 02:15:34;;;;;;;16.42;9.82;;;5.00;99.90;;;;;;5094502;28;20021;-67
2021/03/15 02:18:33;;;;;;;20.83;10.80;;;5.00;99.90;;;;;;5094953;28;20044;-67
2021/03/15 02:21:30;;;;;;;17.75;10.32;;;4.90;99.90;;;;;;5094612;28;20062;-67
2021/03/15 02:24:13;;;;;;;19.10;12.32;;;4.90;99.90;;;;;;5094194;28;20036;-67
2021/03/15 02:26:58;;;;;;;17.55;11.75;;;4.80;99.90;;;;;;5094246;28;20052;-67
2021/03/15 02:29:51;;;;;;;20.30;11.73;;;4.80;99.90;;;;;;5093321;28;20032;-67
2021/03/15 02:32:46;;;;;;;22.35;12.70;;;4.80;99.90;;;;;;5077638;28;20028;-67
2021/03/15 02:35:20;;;;;;;20.83;13.35;;;4.80;99.90;;;;;;5094628;28;20051;-67
2021/03/15 02:37:50;;;;;;;23.70;14.88;;;4.80;99.90;;;;;;5093499;28;20020;-67
2021/03/15 02:40:39;;;;;;;28.23;14.85;;;4.80;99.90;;;;;;5093868;28;20031;-67
2021/03/15 02:43:09;;;;;;;25.98;15.60;;;4.80;99.90;;;;;;5093893;28;20051;-67
2021/03/15 02:45:37;;;;;;;29.33;16.38;;;4.80;99.90;;;;;;5093055;28;20399;-67
2021/03/15 02:48:07;;;;;;;27.80;17.73;;;4.80;99.90;;;;;;5094475;28;20116;-67
2021/03/15 02:50:34;;;;;;;27.08;17.55;;;4.80;99.90;;;;;;5093849;28;20460;-67
2021/03/15 02:53:02;;;;;;;27.90;17.15;;;4.80;99.90;;;;;;5094412;28;20035;-67
2021/03/15 02:55:29;;;;;;;23.38;14.73;;;4.70;99.90;;;;;;5094092;28;20461;-67
2021/03/15 02:57:56;;;;;;;26.30;16.52;;;4.80;99.90;;;;;;5094325;28;20505;-67
2021/03/15 03:00:23;;;;;;;23.42;15.77;;;4.80;99.90;;;;;;5094309;28;20025;-67
2021/03/15 03:02:51;;;;;;;23.27;14.75;;;4.80;99.90;;;;;;5094020;28;20437;-67
2021/03/15 03:05:18;;;;;;;24.60;16.13;;;4.80;99.90;;;;;;5092436;28;20076;-67
2021/03/15 03:07:46;;;;;;;25.65;16.27;;;4.80;99.90;;;;;;5093901;28;20046;-67
2021/03/15 03:10:14;;;;;;;23.90;15.02;;;4.70;99.90;;;;;;5093532;28;20039;-67
2021/03/15 03:12:40;;;;;;;25.50;16.23;;;4.70;99.90;;;;;;5093608;28;20024;-67
2021/03/15 03:15:08;;;;;;;24.42;14.95;;;4.80;99.90;;;;;;5094164;28;20082;-67
2021/03/15 03:17:39;;;;;;;22.77;13.77;;;4.80;99.90;;;;;;5094095;28;20034;-67
2021/03/15 03:20:10;;;;;;;22.67;14.32;;;4.80;99.90;;;;;;5093827;28;20028;-67
2021/03/15 03:22:39;;;;;;;22.55;14.45;;;4.70;99.90;;;;;;5094079;28;20453;-67
2021/03/15 03:25:08;;;;;;;22.70;14.30;;;4.70;99.90;;;;;;5094056;28;20452;-67
2021/03/15 03:27:35;;;;;;;22.10;14.43;;;4.70;99.90;;;;;;5093997;28;20028;-67
2021/03/15 03:30:01;;;;;;;22.88;13.35;;;4.70;99.90;;;;;;5093908;28;20032;-67
2021/03/15 03:32:28;;;;;;;20.58;12.90;;;4.60;99.90;;;;;;5093706;28;20415;-67
2021/03/15 03:34:54;;;;;;;21.67;13.13;;;4.70;99.90;;;;;;5093668;28;20024;-67
2021/03/15 03:37:20;;;;;;;24.42;13.43;;;4.70;99.90;;;;;;5093943;28;20035;-67
2021/03/15 03:39:45;;;;;;;22.70;14.45;;;4.70;99.90;;;;;;5093663;28;20373;-67
2021/03/15 03:42:11;;;;;;;22.55;13.73;;;4.60;99.90;;;;;;5093628;28;20073;-67
2021/03/15 03:44:37;;;;;;;20.70;13.30;;;4.70;99.90;;;;;;5092718;28;20529;-67
2021/03/15 03:47:03;;;;;;;18.92;12.13;;;4.60;99.90;;;;;;5093833;28;20016;-67
2021/03/15 03:49:28;;;;;;;17.92;11.88;;;4.60;99.90;;;;;;5094398;28;20051;-67
2021/03/15 03:52:00;;;;;;;19.35;12.38;;;4.60;99.90;;;;;;5091939;28;20028;-67
2021/03/15 03:54:30;;;;;;;19.75;11.65;;;4.60;99.90;;;;;;5097176;28;20074;-67
2021/03/15 03:57:02;;;;;;;15.95;10.50;;;4.70;99.90;;;;;;5097410;28;20395;-67
2021/03/15 03:59:31;;;;;;;17.17;11.15;;;4.70;99.90;;;;;;5097627;28;20074;-67
2021/03/15 04:02:01;;;;;;;16.30;9.02;;;4.60;99.90;;;;;;5097576;28;20024;-67
2021/03/15 04:04:30;;;;;;;14.85;9.57;;;4.70;99.90;;;;;;5097505;28;20476;-67
2021/03/15 04:06:56;;;;;;;12.65;8.50;;;4.60;99.90;;;;;;5096300;28;20032;-67
2021/03/15 04:09:27;;;;;;;11.85;7.93;;;4.70;99.90;;;;;;5096627;28;20573;-67
2021/03/15 04:11:57;;;;;;;15.00;8.70;;;4.70;99.90;;;;;;5097307;28;20031;-67
2021/03/15 04:14:28;;;;;;;13.10;8.02;;;4.70;99.90;;;;;;5097313;28;20111;-67
2021/03/15 04:16:55;;;;;;;14.85;8.30;;;4.60;99.90;;;;;;5096720;28;20051;-67
2021/03/15 04:19:30;;;;;;;12.88;7.93;;;4.70;99.90;;;;;;5097261;28;20020;-67
2021/03/15 04:22:01;;;;;;;13.02;7.95;;;4.70;99.90;;;;;;5096928;28;20024;-67
2021/03/15 04:24:28;;;;;;;12.38;7.85;;;4.70;99.90;;;;;;5096601;28;20028;-67
2021/03/15 04:26:55;;;;;;;13.13;8.00;;;4.60;99.90;;;;;;5096826;28;20036;-67
2021/03/15 04:29:22;;;;;;;13.57;8.52;;;4.60;99.90;;;;;;5095613;28;20051;-67
2021/03/15 04:31:48;;;;;;;14.90;9.98;;;4.60;99.90;;;;;;5095796;28;20073;-67
2021/03/15 04:34:15;;;;;;;17.33;9.50;;;4.60;99.90;;;;;;5096986;28;20024;-67
2021/03/15 04:36:43;;;;;;;17.65;9.82;;;4.60;99.90;;;;;;5096938;28;20052;-67
2021/03/15 04:39:10;;;;;;;17.50;10.32;;;4.60;99.90;;;;;;5096921;28;20417;-67
2021/03/15 04:41:36;;;;;;;15.98;11.25;;;4.60;99.90;;;;;;5096609;28;20019;-67
2021/03/15 04:44:02;;;;;;;19.52;11.88;;;4.60;99.90;;;;;;5096808;28;20456;-67
2021/03/15 04:46:28;;;;;;;21.08;11.60;;;4.60;99.90;;;;;;5096488;28;20085;-67
2021/03/15 04:48:54;;;;;;;19.40;12.25;;;4.60;99.90;;;;;;5078028;28;20031;-67
2021/03/15 04:51:20;;;;;;;20.38;11.77;;;4.60;99.90;;;;;;5096042;28;20032;-67
2021/03/15 04:53:47;;;;;;;21.63;12.77;;;4.60;99.90;;;;;;5096067;28;20036;-67
2021/03/15 04:56:15;;;;;;;20.05;11.63;;;4.60;99.90;;;;;;5096493;28;20020;-67
2021/03/15 04:58:45;;;;;;;18.98;11.07;;;4.60;99.90;;;;;;5094609;28;20024;-67
2021/03/15 05:01:11;;;;;;;16.70;11.32;;;4.60;99.90;;;;;;5095859;28;20085;-67
2021/03/15 05:03:39;;;;;;;19.23;12.07;;;4.60;99.90;;;;;;5096121;28;20395;-67
2021/03/15 05:06:07;;;;;;;22.75;13.02;;;4.50;99.90;;;;;;5094577;28;20039;-67
2021/03/15 05:08:36;;;;;;;21.92;12.45;;;4.50;99.90;;;;;;5096054;28;20098;-67
2021/03/15 05:11:03;;;;;;;20.60;12.82;;;4.50;99.90;;;;;;5095529;28;20138;-67
2021/03/15 05:13:29;;;;;;;21.63;12.32;;;4.50;99.90;;;;;;5094488;28;20027;-67
2021/03/15 05:15:57;;;;;;;20.60;12.57;;;4.50;99.90;;;;;;5096219;28;20149;-67
2021/03/15 05:18:24;;;;;;;21.98;13.35;;;4.50;99.90;;;;;;5096179;28;20066;-67
2021/03/15 05:20:50;;;;;;;27.52;13.80;;;4.40;99.90;;;;;;5096108;28;20111;-67
2021/03/15 05:23:16;;;;;;;24.80;14.68;;;4.30;99.90;;;;;;5096066;28;20032;-67
2021/03/15 05:25:43;;;;;;;25.95;14.70;;;4.20;99.90;;;;;;5096034;28;20024;-67
2021/03/15 05:28:10;;;;;;;24.67;14.43;;;4.30;99.90;;;;;;5095942;28;20031;-67
2021/03/15 05:30:36;;;;;;;26.05;14.95;;;4.20;99.90;;;;;;5094397;28;20027;-67
2021/03/15 05:33:09;;;;;;;24.20;15.15;;;4.20;99.90;;;;;;5095849;28;20051;-67
2021/03/15 05:35:35;;;;;;;25.50;14.77;;;4.10;99.90;;;;;;5095825;28;20441;-67
2021/03/15 05:38:01;;;;;;;29.85;16.38;;;4.10;99.90;;;;;;5094280;28;20388;-67
2021/03/15 05:40:27;;;;;;;29.88;15.82;;;4.10;99.90;;;;;;5095732;28;20028;-67
2021/03/15 05:43:33;;;;;;;29.95;16.00;;;4.10;99.90;;;;;;5095096;28;20035;-67
2021/03/15 05:46:39;;;;;;;28.15;15.80;;;4.20;99.90;;;;;;5094999;28;20031;-67
2021/03/15 05:49:44;;;;;;;26.20;14.82;;;4.20;99.90;;;;;;5093699;28;20070;-67
2021/03/15 05:52:43;;;;;;;27.52;14.90;;;4.40;99.90;;;;;;5094975;28;20032;-67
2021/03/15 05:55:38;;;;;;;27.38;14.50;;;4.40;99.90;;;;;;5094828;28;20081;-67
2021/03/15 05:58:44;;;;;;;25.42;14.15;;;4.40;99.90;;;;;;5093444;28;20062;-67
2021/03/15 06:01:35;;;;;;;28.77;15.00;;;4.40;99.90;;;;;;5094750;28;20024;-67
2021/03/15 06:04:30;;;;;;;27.02;15.43;;;4.40;99.90;;;;;;5095265;28;20020;-67
2021/03/15 06:06:56;;;;;;;30.02;15.60;;;4.40;99.90;;;;;;5094858;28;20072;-67
2021/03/15 06:09:28;;;;;;;27.85;14.43;;;4.50;99.90;;;;;;5094649;28;20112;-67
2021/03/15 06:12:01;;;;;;;27.95;14.73;;;4.50;99.90;;;;;;5095022;28;20024;-67
2021/03/15 06:14:29;;;;;;;25.35;14.85;;;4.60;99.90;;;;;;5094862;28;20020;-67
2021/03/15 06:16:55;;;;;;;24.65;14.30;;;4.60;99.90;;;;;;5094343;28;20107;-67
2021/03/15 06:19:24;;;;;;;25.63;14.38;;;4.60;99.90;;;;;;5094978;28;20044;-67
2021/03/15 06:21:50;;;;;;;25.38;13.85;;;4.70;99.90;;;;;;5094646;28;20019;-67
2021/03/15 06:24:16;;;;;;;20.90;12.75;;;4.70;99.90;;;;;;5094879;28;20115;-67
2021/03/15 06:26:43;;;;;;;23.58;13.60;;;4.70;99.90;;;;;;5094562;28;20077;-67
2021/03/15 06:29:09;;;;;;;24.95;12.88;;;4.70;99.90;;;;;;5094759;28;20085;-67
2021/03/15 06:31:37;;;;;;;22.35;13.07;;;4.80;99.90;;;;;;5092893;28;20023;-67
2021/03/15 06:34:03;;;;;;;21.23;12.57;;;4.80;99.90;;;;;;5094695;28;20457;-67
2021/03/15 06:36:29;;;;;;;22.35;12.20;;;4.80;99.90;;;;;;5094662;28;20051;-67
2021/03/15 06:38:56;;;;;;;20.13;11.18;;;4.90;99.90;;;;;;5092939;28;20024;-67
2021/03/15 06:41:23;;;;;;;21.08;12.02;;;4.90;99.90;;;;;;5094558;28;20020;-67
2021/03/15 06:43:48;;;;;;;28.92;15.85;;;5.00;99.90;;;;;;5094549;28;20047;-67
2021/03/15 06:46:16;;;;;;;21.80;12.65;;;5.10;99.90;;;;;;5094158;28;20461;-67
2021/03/15 06:48:42;;;;;;;22.05;12.70;;;5.10;99.90;;;;;;5092580;28;20024;-67
2021/03/15 06:51:07;;;;;;;17.17;10.25;;;5.10;99.90;;;;;;5094327;28;20024;-67
2021/03/15 06:53:38;;;;;;;21.00;11.27;;;5.20;99.90;;;;;;5093305;28;20115;-67
2021/03/15 06:56:12;;;;;;;19.42;10.82;;;5.20;99.90;;;;;;5094336;28;20016;-67
2021/03/15 06:58:48;;;;;;;19.17;10.68;;;5.30;99.90;;;;;;5094017;28;20023;-67
2021/03/15 07:01:17;;;;;;;18.05;10.15;;;5.20;99.90;;;;;;5092920;28;20024;-67
2021/03/15 07:03:45;;;;;;;20.23;11.63;;;5.30;99.90;;;;;;5093640;28;20024;-67
2021/03/15 07:06:12;;;;;;;22.48;9.75;;;5.40;99.90;;;;;;5093448;28;20105;-67
2021/03/15 07:08:38;;;;;;;17.67;9.48;;;5.60;99.90;;;;;;5093093;28;20024;-67
2021/03/15 07:11:04;;;;;;;19.30;9.93;;;5.80;99.90;;;;;;5091466;28;20447;-68
2021/03/15 07:13:37;;;;;;;17.65;9.27;;;6.10;99.90;;;;;;5092346;28;20020;-67
2021/03/15 07:16:06;;;;;;;13.60;7.97;;;6.60;99.90;;;;;;5071676;28;20467;-67
2021/03/15 07:18:34;;;;;;;13.27;8.18;;;6.60;99.90;;;;;;5086204;28;20024;-67
2021/03/15 07:21:04;;;;;;;14.02;8.18;;;6.70;99.90;;;;;;5093914;28;20107;-67
2021/03/15 07:23:48;;;;;;;15.05;7.78;;;7.20;99.90;;;;;;5093595;28;20028;-67
2021/03/15 07:26:21;;;;;;;11.90;7.13;;;7.30;99.90;;;;;;5094494;28;20031;-68
2021/03/15 07:28:47;;;;;;;13.27;7.20;;;7.30;99.90;;;;;;5097738;28;20550;-67
2021/03/15 07:36:45;;;;;;;13.45;6.95;;;7.10;99.90;;;;;;5091194;27;20370;-68
2021/03/15 07:39:11;;;;;;;12.65;6.63;;;9.40;99.90;;;;;;5090648;28;20393;-67
2021/03/15 07:41:39;;;;;;;12.93;6.78;;;8.90;99.90;;;;;;5087136;28;20016;-68
2021/03/15 07:44:25;;;;;;;12.45;5.72;;;9.00;99.90;;;;;;5082714;28;20020;-67
2021/03/15 07:46:54;;;;;;;8.93;5.28;;;9.30;99.90;;;;;;5087761;28;20111;-66
2021/03/15 07:49:29;;;;;;;10.00;5.20;;;9.50;99.90;;;;;;5072254;28;20473;-66
2021/03/15 07:51:58;;;;;;;9.63;5.47;;;9.30;99.90;;;;;;5090039;28;20081;-66
2021/03/15 07:54:25;;;;;;;9.10;5.90;;;8.70;99.90;;;;;;5082173;28;20040;-66
2021/03/15 07:57:11;;;;;;;9.70;5.63;;;8.90;99.90;;;;;;5088883;28;20020;-66
2021/03/15 08:00:02;;;;;;;14.77;6.47;;;8.70;99.90;;;;;;5089134;28;20043;-66
2021/03/15 08:02:29;;;;;;;9.25;5.78;;;8.30;99.90;;;;;;5090228;28;20419;-66
2021/03/15 08:04:57;;;;;;;10.25;5.95;;;8.00;99.90;;;;;;5088182;28;20135;-66
2021/03/15 08:07:24;;;;;;;10.70;6.20;;;7.60;99.90;;;;;;5068474;28;20489;-65
2021/03/15 08:09:52;;;;;;;13.90;6.78;;;7.20;99.90;;;;;;5086349;28;20035;-65
2021/03/15 08:12:22;;;;;;;16.65;7.13;;;7.00;99.90;;;;;;5088461;28;20055;-66
2021/03/15 08:14:49;;;;;;;11.70;5.85;;;7.00;99.90;;;;;;5089209;28;20056;-66
2021/03/15 08:17:18;;;;;;;11.80;5.90;;;7.00;99.90;;;;;;5088443;28;20032;-66
2021/03/15 08:19:46;;;;;;;18.63;6.57;;;7.00;99.90;;;;;;5088943;28;20500;-66
2021/03/15 08:22:14;;;;;;;11.98;6.65;;;7.10;99.90;;;;;;5088016;28;20028;-65
2021/03/15 08:24:41;;;;;;;14.23;6.72;;;7.10;99.90;;;;;;5088301;28;20040;-66
2021/03/15 08:27:07;;;;;;;18.00;7.28;;;7.10;99.90;;;;;;5082216;28;20028;-66
2021/03/15 08:29:37;;;;;;;15.25;7.63;;;7.20;99.90;;;;;;5089024;28;20032;-66
2021/03/15 08:32:05;;;;;;;15.73;7.13;;;7.20;99.90;;;;;;5089919;28;20035;-65
2021/03/15 08:34:33;;;;;;;17.35;7.35;;;7.20;99.90;;;;;;5088252;28;20071;-64
2021/03/15 08:36:58;;;;;;;14.32;6.70;;;7.30;99.90;;;;;;5076843;28;20031;-66
2021/03/15 08:39:30;;;;;;;16.58;8.05;;;7.30;99.90;;;;;;5078356;28;20024;-66
2021/03/15 08:42:23;;;;;;;14.23;7.00;;;7.40;99.90;;;;;;5088331;28;20043;-66
2021/03/15 08:44:49;;;;;;;14.98;6.47;;;7.50;99.90;;;;;;5079143;28;20074;-65
2021/03/15 08:47:51;;;;;;;15.02;7.32;;;7.30;99.90;;;;;;5077580;28;20454;-66
2021/03/15 08:50:39;;;;;;;14.43;5.40;;;7.30;99.90;;;;;;5065662;28;20516;-66
2021/03/15 08:53:04;;;;;;;19.23;6.38;;;7.20;99.90;;;;;;5073999;28;20393;-65
2021/03/15 08:55:47;;;;;;;14.07;5.63;;;7.30;99.90;;;;;;5063552;28;20025;-66
2021/03/15 08:58:36;;;;;;;12.38;5.13;;;7.40;99.90;;;;;;5062864;28;20031;-66
2021/03/15 09:01:06;;;;;;;12.25;6.07;;;7.30;99.90;;;;;;5061172;28;20028;-65
2021/03/15 09:06:55;;;;;;;11.80;5.68;;;7.50;99.90;;;;;;5098188;27;20429;-65
2021/03/15 09:12:01;;;;;;;19.35;6.22;;;7.40;99.90;;;;;;5069908;28;20447;-65
2021/03/15 09:19:53;;;;;;;16.58;6.60;;;6.70;99.90;;;;;;5111068;27;20397;-65
2021/03/15 09:22:27;;;;;;;11.30;5.53;;;6.90;99.90;;;;;;5111011;28;20024;-64
2021/03/15 09:30:19;;;;;;;18.77;5.63;;;7.20;99.90;;;;;;5111058;27;20351;-66
2021/03/15 09:32:51;;;;;;;14.75;5.10;;;7.60;99.90;;;;;;5109276;28;20073;-66
2021/03/15 09:35:28;;;;;;;18.83;5.05;;;7.50;99.90;;;;;;5111257;28;20038;-66
2021/03/15 09:38:06;;;;;;;12.77;4.18;;;7.40;99.90;;;;;;5109361;28;20085;-67
2021/03/15 09:40:38;;;;;;;17.38;5.70;;;7.30;99.90;;;;;;5110129;28;20027;-63
2021/03/15 09:43:04;;;;;;;14.95;5.13;;;7.20;99.90;;;;;;5110617;28;20020;-62
2021/03/15 09:45:35;;;;;;;17.63;6.47;;;7.20;99.90;;;;;;5110616;28;20089;-63
2021/03/15 09:48:03;;;;;;;17.30;5.72;;;7.30;99.90;;;;;;5110333;28;20514;-63
2021/03/15 09:50:32;;;;;;;23.15;5.63;;;7.30;99.90;;;;;;5109249;28;20020;-63
2021/03/15 09:53:14;;;;;;;10.35;4.25;;;7.50;99.90;;;;;;5111139;28;20464;-63
2021/03/15 09:55:43;;;;;;;17.50;5.72;;;7.50;99.90;;;;;;5109671;28;20024;-63
2021/03/15 09:58:14;;;;;;;13.50;4.55;;;7.40;99.90;;;;;;5110476;28;20488;-62
2021/03/15 10:00:40;;;;;;;15.68;4.55;;;7.20;99.90;;;;;;5109958;28;20032;-63
2021/03/15 10:03:06;;;;;;;20.30;4.65;;;7.40;99.90;;;;;;5110228;28;20405;-63
2021/03/15 10:05:51;;;;;;;18.02;4.60;;;7.70;99.90;;;;;;5109689;28;20016;-64
2021/03/15 10:08:17;;;;;;;15.27;5.10;;;8.00;99.90;;;;;;5109674;28;20024;-63
2021/03/15 10:10:42;;;;;;;19.50;5.18;;;8.30;99.90;;;;;;5110268;28;20080;-63
2021/03/15 10:13:08;;;;;;;16.95;4.25;;;8.80;99.90;;;;;;5108525;28;20161;-62
2021/03/15 10:15:34;;;;;;;9.70;3.20;;;10.30;99.90;;;;;;5099772;22;20509;-82
2021/03/15 10:18:02;;;;;;;9.52;3.17;;;11.30;99.90;;;;;;5074531;28;20120;-80
2021/03/15 10:20:30;;;;;;;9.48;3.13;;;10.50;99.90;;;;;;5058619;28;20492;-80
2021/03/15 10:23:18;;;;;;;9.13;3.30;;;10.00;99.90;;;;;;5071578;28;20499;-81
2021/03/15 10:26:00;;;;;;;9.77;3.45;;;9.30;99.90;;;;;;5060390;28;20028;-80
2021/03/15 10:28:28;;;;;;;11.45;3.33;;;8.90;99.90;;;;;;5054985;28;20036;-85
2021/03/15 10:30:54;;;;;;;9.52;3.20;;;8.50;99.90;;;;;;5054782;28;20030;-79
2021/03/15 10:33:21;;;;;;;10.52;3.20;;;8.40;99.90;;;;;;5054809;28;20123;-82
2021/03/15 10:35:49;;;;;;;12.50;2.65;;;8.10;99.90;;;;;;5054589;28;20107;-80
2021/03/15 10:38:14;;;;;;;9.50;3.08;;;8.10;99.90;;;;;;5055203;28;20028;-83
2021/03/15 10:40:40;;;;;;;13.13;3.05;;;7.80;99.90;;;;;;5080605;28;20107;-84
2021/03/15 10:43:07;;;;;;;15.45;3.78;;;7.90;99.90;;;;;;5058400;28;20033;-82
2021/03/15 10:45:32;;;;;;;12.80;3.83;;;8.00;99.90;;;;;;5058954;28;20031;-82
2021/03/15 10:48:01;;;;;;;14.85;3.70;;;8.20;99.90;;;;;;5057485;28;20033;-82
2021/03/15 10:56:05;;;;;;;17.77;4.15;;;8.10;99.90;;;;;;5107140;27;20371;-69
2021/03/15 10:58:38;;;;;;;23.88;3.88;;;7.80;99.90;;;;;;5100465;28;20032;-68
2021/03/15 11:01:04;;;;;;;17.85;3.85;;;7.70;99.90;;;;;;5075744;28;20024;-68
2021/03/15 11:03:34;;;;;;;14.98;4.10;;;7.80;99.90;;;;;;5070294;28;20028;-69
2021/03/15 11:06:08;;;;;;;18.35;3.58;;;8.00;99.90;;;;;;5070129;28;20051;-69
2021/03/15 11:08:35;;;;;;;9.68;3.35;;;8.30;99.90;;;;;;5069890;28;20020;-68
2021/03/15 11:11:18;;;;;;;6.97;2.53;;;8.60;99.90;;;;;;5077651;28;20055;-67
2021/03/15 11:13:45;;;;;;;12.27;3.38;;;9.00;99.90;;;;;;5089923;28;20025;-67
2021/03/15 11:16:29;;;;;;;18.67;2.90;;;9.20;99.90;;;;;;5084334;28;20485;-68
2021/03/15 11:19:12;;;;;;;11.32;2.42;;;9.10;99.90;;;;;;5072217;28;20481;-66
2021/03/15 11:21:41;;;;;;;13.83;3.17;;;9.00;99.90;;;;;;5089938;28;20040;-68
2021/03/15 11:24:09;;;;;;;15.73;2.88;;;8.80;99.90;;;;;;5086940;28;20027;-67
2021/03/15 11:26:52;;;;;;;12.55;2.30;;;9.00;99.90;;;;;;5090048;28;20097;-67
2021/03/15 11:29:32;;;;;;;13.68;2.92;;;9.10;99.90;;;;;;5091237;28;20536;-67
2021/03/15 11:31:58;;;;;;;10.13;2.45;;;9.10;99.90;;;;;;5097608;28;20380;-67
2021/03/15 11:34:24;;;;;;;15.68;3.15;;;9.00;99.90;;;;;;5083618;28;20036;-67
2021/03/15 11:36:53;;;;;;;14.98;2.90;;;8.90;99.90;;;;;;5088410;28;20541;-67
2021/03/15 11:39:19;;;;;;;15.18;3.22;;;9.00;99.90;;;;;;5103651;28;20023;-67
2021/03/15 11:41:46;;;;;;;9.95;2.65;;;9.00;99.90;;;;;;5099844;28;20444;-67
2021/03/15 11:44:13;;;;;;;11.13;2.20;;;9.10;99.90;;;;;;5091363;28;20362;-67
2021/03/15 11:46:39;;;;;;;6.63;1.95;;;9.30;99.90;;;;;;5088836;28;20028;-67
2021/03/15 11:49:05;;;;;;;7.10;2.22;;;9.40;99.90;;;;;;5085695;28;20085;-67
2021/03/15 11:51:31;;;;;;;7.55;1.65;;;9.60;99.90;;;;;;5083117;28;20028;-67
2021/03/15 11:53:57;;;;;;;9.27;2.00;;;9.50;99.90;;;;;;5069386;28;20063;-67
2021/03/15 11:56:22;;;;;;;9.77;1.92;;;9.50;99.90;;;;;;5083084;28;20020;-67
2021/03/15 11:58:48;;;;;;;9.30;2.03;;;9.40;99.90;;;;;;5081068;28;20093;-67
2021/03/15 12:01:14;;;;;;;12.48;3.83;;;9.30;99.90;;;;;;5095403;28;20021;-67
2021/03/15 12:03:39;;;;;;;10.23;2.83;;;8.90;99.90;;;;;;5084758;28;20024;-68
2021/03/15 12:06:05;;;;;;;8.05;2.65;;;8.80;99.90;;;;;;5070046;28;20491;-67
2021/03/15 12:08:32;;;;;;;11.63;2.30;;;9.10;99.90;;;;;;5075700;28;20025;-68
2021/03/15 12:10:58;;;;;;;8.50;1.70;;;9.10;99.90;;;;;;5075934;28;20048;-68
2021/03/15 12:13:25;;;;;;;8.80;1.63;;;9.20;99.90;;;;;;5075394;28;20029;-67
2021/03/15 12:15:51;;;;;;;6.53;1.77;;;9.40;99.90;;;;;;5075630;28;20028;-69
2021/03/15 12:18:17;;;;;;;5.43;1.50;;;9.50;99.90;;;;;;5073867;28;20028;-67
2021/03/15 12:20:44;;;;;;;7.65;1.70;;;9.70;99.90;;;;;;5061110;28;20033;-68
2021/03/15 12:23:10;;;;;;;10.90;1.55;;;10.00;99.90;;;;;;5075508;28;20512;-67
2021/03/15 12:25:37;;;;;;;8.20;1.83;;;9.90;99.90;;;;;;5086969;28;20472;-67
2021/03/15 12:28:04;;;;;;;9.93;2.38;;;9.80;99.90;;;;;;5069687;28;20074;-67
2021/03/15 12:30:30;;;;;;;5.30;2.25;;;9.70;99.90;;;;;;5062140;28;20385;-67
2021/03/15 12:32:56;;;;;;;10.25;2.33;;;9.30;99.90;;;;;;5057337;28;20029;-66
2021/03/15 12:35:24;;;;;;;7.82;1.92;;;8.90;99.90;;;;;;5073637;28;20033;-69
2021/03/15 12:37:49;;;;;;;9.02;1.95;;;9.00;99.90;;;;;;5068061;28;20021;-68
2021/03/15 12:40:16;;;;;;;10.55;1.95;;;9.30;99.90;;;;;;5070052;28;20522;-68
2021/03/15 12:42:41;;;;;;;8.48;1.58;;;9.60;99.90;;;;;;5070100;28;20074;-68
2021/03/15 12:45:08;;;;;;;5.25;1.35;;;9.80;99.90;;;;;;5053246;28;20111;-68
2021/03/15 12:47:34;;;;;;;7.18;1.83;;;9.40;99.90;;;;;;5057806;28;20388;-69
2021/03/15 12:49:59;;;;;;;5.72;1.80;;;9.30;99.90;;;;;;5075196;28;20388;-67
2021/03/15 12:52:27;;;;;;;8.60;1.90;;;8.90;99.90;;;;;;5058325;28;20151;-69
2021/03/15 12:54:53;;;;;;;5.53;1.73;;;8.80;99.90;;;;;;5054764;28;20127;-68
2021/03/15 12:57:19;;;;;;;5.15;1.35;;;8.90;99.90;;;;;;5072741;28;20425;-69
2021/03/15 12:59:45;;;;;;;8.30;1.75;;;9.20;99.90;;;;;;5069442;28;20139;-69
2021/03/15 13:02:10;;;;;;;10.95;1.90;;;9.40;99.90;;;;;;5057151;28;20158;-67
2021/03/15 13:04:36;;;;;;;5.25;1.40;;;9.70;99.90;;;;;;5065454;28;20023;-70
2021/03/15 13:07:01;;;;;;;5.70;1.50;;;9.90;99.90;;;;;;5054551;28;20028;-66
2021/03/15 13:09:27;;;;;;;8.77;1.65;;;9.60;99.90;;;;;;5053496;28;20025;-66
2021/03/15 13:11:54;;;;;;;8.45;2.45;;;9.40;99.90;;;;;;5064934;28;20090;-68
2021/03/15 13:14:20;;;;;;;7.95;1.88;;;9.10;99.90;;;;;;5064668;28;20025;-68
2021/03/15 13:16:45;;;;;;;6.28;1.77;;;8.90;99.90;;;;;;5068126;28;20078;-68
2021/03/15 13:19:11;;;;;;;7.20;1.60;;;8.70;99.90;;;;;;5091996;28;20453;-67
2021/03/15 13:21:37;;;;;;;7.05;1.75;;;8.00;99.90;;;;;;5056578;28;20032;-68
2021/03/15 13:24:12;;;;;;;6.47;1.60;;;7.40;99.90;;;;;;5070101;28;20090;-67